sensor_id;sensor_type;location;lat;lon;timestamp;P1;durP1;ratioP1;P2;durP2;ratioP2
77206;SDS011;66190;50.708;7.906;2023-05-10T00:00:27;4.60;;;1.30;;
77206;SDS011;66190;50.708;7.906;2023-05-10T00:02:53;5.67;;;1.30;;
77206;SDS011;66190;50.708;7.906;2023-05-10T00:05:18;5.03;;;1.35;;
77206;SDS011;66190;50.708;7.906;2023-05-10T00:07:44;4.97;;;1.60;;
77206;SDS011;66190;50.708;7.906;2023-05-10T00:10:12;6.28;;;1.60;;
77206;SDS011;66190;50.708;7.906;2023-05-10T00:12:38;5.13;;;1.43;;
77206;SDS011;66190;50.708;7.906;2023-05-10T00:15:03;5.20;;;1.50;;
77206;SDS011;66190;50.708;7.906;2023-05-10T00:17:30;5.10;;;1.20;;
77206;SDS011;66190;50.708;7.906;2023-05-10T00:19:55;4.40;;;1.13;;
77206;SDS011;66190;50.708;7.906;2023-05-10T00:22:21;5.82;;;1.33;;
77206;SDS011;66190;50.708;7.906;2023-05-10T00:24:46;6.70;;;1.60;;
77206;SDS011;66190;50.708;7.906;2023-05-10T00:27:11;5.40;;;1.33;;
77206;SDS011;66190;50.708;7.906;2023-05-10T00:29:37;6.80;;;1.30;;
77206;SDS011;66190;50.708;7.906;2023-05-10T00:32:02;4.40;;;1.20;;
77206;SDS011;66190;50.708;7.906;2023-05-10T00:34:28;4.88;;;1.33;;
77206;SDS011;66190;50.708;7.906;2023-05-10T00:36:53;5.50;;;1.13;;
77206;SDS011;66190;50.708;7.906;2023-05-10T00:39:19;5.07;;;1.27;;
77206;SDS011;66190;50.708;7.906;2023-05-10T00:41:44;6.93;;;1.15;;
77206;SDS011;66190;50.708;7.906;2023-05-10T00:44:10;10.40;;;1.27;;
77206;SDS011;66190;50.708;7.906;2023-05-10T00:46:35;5.93;;;1.53;;
77206;SDS011;66190;50.708;7.906;2023-05-10T00:49:01;4.03;;;0.80;;
77206;SDS011;66190;50.708;7.906;2023-05-10T00:51:26;4.50;;;0.70;;
77206;SDS011;66190;50.708;7.906;2023-05-10T00:53:52;2.57;;;0.57;;
77206;SDS011;66190;50.708;7.906;2023-05-10T00:56:18;2.50;;;0.50;;
77206;SDS011;66190;50.708;7.906;2023-05-10T00:58:47;3.78;;;0.65;;
77206;SDS011;66190;50.708;7.906;2023-05-10T01:01:13;4.20;;;1.10;;
77206;SDS011;66190;50.708;7.906;2023-05-10T01:03:39;5.88;;;1.27;;
77206;SDS011;66190;50.708;7.906;2023-05-10T01:06:05;3.70;;;1.00;;
77206;SDS011;66190;50.708;7.906;2023-05-10T01:08:31;7.47;;;1.20;;
77206;SDS011;66190;50.708;7.906;2023-05-10T01:10:56;5.80;;;1.38;;
77206;SDS011;66190;50.708;7.906;2023-05-10T01:13:33;4.60;;;1.40;;
77206;SDS011;66190;50.708;7.906;2023-05-10T01:16:02;3.72;;;0.98;;
77206;SDS011;66190;50.708;7.906;2023-05-10T01:18:29;3.72;;;1.02;;
77206;SDS011;66190;50.708;7.906;2023-05-10T01:21:14;4.00;;;1.00;;
77206;SDS011;66190;50.708;7.906;2023-05-10T01:27:02;4.53;;;1.13;;
77206;SDS011;66190;50.708;7.906;2023-05-10T01:32:32;4.80;;;1.23;;
77206;SDS011;66190;50.708;7.906;2023-05-10T01:35:06;4.32;;;1.17;;
77206;SDS011;66190;50.708;7.906;2023-05-10T01:38:06;5.40;;;1.92;;
77206;SDS011;66190;50.708;7.906;2023-05-10T01:41:05;6.35;;;1.90;;
77206;SDS011;66190;50.708;7.906;2023-05-10T01:46:33;5.68;;;1.77;;
77206;SDS011;66190;50.708;7.906;2023-05-10T01:49:02;5.65;;;1.95;;
77206;SDS011;66190;50.708;7.906;2023-05-10T01:51:35;6.25;;;2.38;;
77206;SDS011;66190;50.708;7.906;2023-05-10T01:54:06;6.50;;;2.00;;
77206;SDS011;66190;50.708;7.906;2023-05-10T01:56:34;5.88;;;2.00;;
77206;SDS011;66190;50.708;7.906;2023-05-10T01:59:04;5.13;;;1.67;;
77206;SDS011;66190;50.708;7.906;2023-05-10T02:01:33;5.65;;;1.80;;
77206;SDS011;66190;50.708;7.906;2023-05-10T02:04:02;6.05;;;2.13;;
77206;SDS011;66190;50.708;7.906;2023-05-10T02:06:29;5.60;;;1.52;;
77206;SDS011;66190;50.708;7.906;2023-05-10T02:08:56;4.72;;;1.40;;
77206;SDS011;66190;50.708;7.906;2023-05-10T02:11:22;5.35;;;1.90;;
77206;SDS011;66190;50.708;7.906;2023-05-10T02:13:49;6.72;;;2.60;;
77206;SDS011;66190;50.708;7.906;2023-05-10T02:16:16;6.72;;;2.13;;
77206;SDS011;66190;50.708;7.906;2023-05-10T02:18:44;5.38;;;1.67;;
77206;SDS011;66190;50.708;7.906;2023-05-10T02:21:10;6.05;;;2.20;;
77206;SDS011;66190;50.708;7.906;2023-05-10T02:23:37;6.32;;;2.50;;
77206;SDS011;66190;50.708;7.906;2023-05-10T02:26:04;6.22;;;2.10;;
77206;SDS011;66190;50.708;7.906;2023-05-10T02:28:31;6.05;;;2.45;;
77206;SDS011;66190;50.708;7.906;2023-05-10T02:30:58;6.55;;;2.58;;
77206;SDS011;66190;50.708;7.906;2023-05-10T02:33:24;7.05;;;2.88;;
77206;SDS011;66190;50.708;7.906;2023-05-10T02:35:51;6.68;;;2.53;;
77206;SDS011;66190;50.708;7.906;2023-05-10T02:38:18;8.32;;;3.22;;
77206;SDS011;66190;50.708;7.906;2023-05-10T02:40:46;7.77;;;2.90;;
77206;SDS011;66190;50.708;7.906;2023-05-10T02:43:14;9.80;;;3.85;;
77206;SDS011;66190;50.708;7.906;2023-05-10T02:45:41;11.43;;;4.05;;
77206;SDS011;66190;50.708;7.906;2023-05-10T02:48:08;20.80;;;4.68;;
77206;SDS011;66190;50.708;7.906;2023-05-10T02:50:34;16.87;;;4.33;;
77206;SDS011;66190;50.708;7.906;2023-05-10T02:53:04;19.42;;;4.18;;
77206;SDS011;66190;50.708;7.906;2023-05-10T02:55:38;10.38;;;3.67;;
77206;SDS011;66190;50.708;7.906;2023-05-10T02:58:06;10.98;;;3.95;;
77206;SDS011;66190;50.708;7.906;2023-05-10T03:00:31;20.97;;;4.20;;
77206;SDS011;66190;50.708;7.906;2023-05-10T03:02:57;44.80;;;5.75;;
77206;SDS011;66190;50.708;7.906;2023-05-10T03:05:22;13.20;;;3.60;;
77206;SDS011;66190;50.708;7.906;2023-05-10T03:07:48;12.32;;;3.33;;
77206;SDS011;66190;50.708;7.906;2023-05-10T03:10:14;6.85;;;2.13;;
77206;SDS011;66190;50.708;7.906;2023-05-10T03:18:23;5.70;;;1.23;;
77206;SDS011;66190;50.708;7.906;2023-05-10T03:20:58;4.78;;;1.10;;
77206;SDS011;66190;50.708;7.906;2023-05-10T03:23:29;5.65;;;1.30;;
77206;SDS011;66190;50.708;7.906;2023-05-10T03:25:59;6.70;;;1.50;;
77206;SDS011;66190;50.708;7.906;2023-05-10T03:28:25;7.78;;;2.38;;
77206;SDS011;66190;50.708;7.906;2023-05-10T03:30:52;11.73;;;2.20;;
77206;SDS011;66190;50.708;7.906;2023-05-10T03:33:19;38.05;;;3.63;;
77206;SDS011;66190;50.708;7.906;2023-05-10T03:35:45;25.35;;;3.60;;
77206;SDS011;66190;50.708;7.906;2023-05-10T03:38:11;14.10;;;2.57;;
77206;SDS011;66190;50.708;7.906;2023-05-10T03:40:39;21.23;;;3.35;;
77206;SDS011;66190;50.708;7.906;2023-05-10T03:43:04;13.10;;;3.43;;
77206;SDS011;66190;50.708;7.906;2023-05-10T03:45:30;22.00;;;3.30;;
77206;SDS011;66190;50.708;7.906;2023-05-10T03:47:56;24.27;;;3.95;;
77206;SDS011;66190;50.708;7.906;2023-05-10T03:50:22;45.30;;;4.22;;
77206;SDS011;66190;50.708;7.906;2023-05-10T03:52:48;8.67;;;2.50;;
77206;SDS011;66190;50.708;7.906;2023-05-10T03:55:13;8.00;;;3.20;;
77206;SDS011;66190;50.708;7.906;2023-05-10T03:57:39;7.90;;;2.60;;
77206;SDS011;66190;50.708;7.906;2023-05-10T04:00:04;8.37;;;3.50;;
77206;SDS011;66190;50.708;7.906;2023-05-10T04:02:30;6.75;;;2.50;;
77206;SDS011;66190;50.708;7.906;2023-05-10T04:04:56;7.10;;;2.67;;
77206;SDS011;66190;50.708;7.906;2023-05-10T04:07:21;6.72;;;2.38;;
77206;SDS011;66190;50.708;7.906;2023-05-10T04:09:47;7.43;;;2.87;;
77206;SDS011;66190;50.708;7.906;2023-05-10T04:12:12;7.25;;;2.63;;
77206;SDS011;66190;50.708;7.906;2023-05-10T04:14:38;7.45;;;2.17;;
77206;SDS011;66190;50.708;7.906;2023-05-10T04:17:03;7.43;;;3.00;;
77206;SDS011;66190;50.708;7.906;2023-05-10T04:19:32;7.13;;;2.67;;
77206;SDS011;66190;50.708;7.906;2023-05-10T04:21:58;8.20;;;2.80;;
77206;SDS011;66190;50.708;7.906;2023-05-10T04:24:23;7.10;;;2.75;;
77206;SDS011;66190;50.708;7.906;2023-05-10T04:26:49;6.10;;;2.37;;
77206;SDS011;66190;50.708;7.906;2023-05-10T04:29:14;5.60;;;2.00;;
77206;SDS011;66190;50.708;7.906;2023-05-10T04:31:40;5.97;;;1.73;;
77206;SDS011;66190;50.708;7.906;2023-05-10T04:34:05;4.90;;;1.50;;
77206;SDS011;66190;50.708;7.906;2023-05-10T04:36:31;5.47;;;1.30;;
77206;SDS011;66190;50.708;7.906;2023-05-10T04:38:57;5.40;;;1.55;;
77206;SDS011;66190;50.708;7.906;2023-05-10T04:41:23;5.37;;;1.67;;
77206;SDS011;66190;50.708;7.906;2023-05-10T04:43:49;4.57;;;1.38;;
77206;SDS011;66190;50.708;7.906;2023-05-10T04:46:15;4.10;;;1.20;;
77206;SDS011;66190;50.708;7.906;2023-05-10T04:48:40;4.40;;;1.03;;
77206;SDS011;66190;50.708;7.906;2023-05-10T04:51:05;4.60;;;1.20;;
77206;SDS011;66190;50.708;7.906;2023-05-10T04:53:31;5.80;;;1.88;;
77206;SDS011;66190;50.708;7.906;2023-05-10T04:55:57;32.63;;;16.33;;
77206;SDS011;66190;50.708;7.906;2023-05-10T04:58:22;20.88;;;10.35;;
77206;SDS011;66190;50.708;7.906;2023-05-10T05:00:48;4.95;;;1.23;;
77206;SDS011;66190;50.708;7.906;2023-05-10T05:03:13;15.17;;;7.40;;
77206;SDS011;66190;50.708;7.906;2023-05-10T05:05:38;20.90;;;10.70;;
77206;SDS011;66190;50.708;7.906;2023-05-10T05:08:05;5.90;;;1.77;;
77206;SDS011;66190;50.708;7.906;2023-05-10T05:10:30;14.32;;;5.75;;
77206;SDS011;66190;50.708;7.906;2023-05-10T05:12:56;51.03;;;7.80;;
77206;SDS011;66190;50.708;7.906;2023-05-10T05:15:21;72.33;;;8.60;;
77206;SDS011;66190;50.708;7.906;2023-05-10T05:17:46;64.63;;;5.18;;
77206;SDS011;66190;50.708;7.906;2023-05-10T05:20:12;32.08;;;6.50;;
77206;SDS011;66190;50.708;7.906;2023-05-10T05:22:38;36.00;;;6.97;;
77206;SDS011;66190;50.708;7.906;2023-05-10T05:25:03;54.67;;;4.40;;
77206;SDS011;66190;50.708;7.906;2023-05-10T05:27:29;59.60;;;8.18;;
77206;SDS011;66190;50.708;7.906;2023-05-10T05:29:55;81.82;;;6.35;;
77206;SDS011;66190;50.708;7.906;2023-05-10T05:32:21;93.78;;;9.52;;
77206;SDS011;66190;50.708;7.906;2023-05-10T05:34:47;51.65;;;6.13;;
77206;SDS011;66190;50.708;7.906;2023-05-10T05:37:14;26.75;;;5.00;;
77206;SDS011;66190;50.708;7.906;2023-05-10T05:39:39;12.70;;;3.78;;
77206;SDS011;66190;50.708;7.906;2023-05-10T05:42:05;13.20;;;4.63;;
77206;SDS011;66190;50.708;7.906;2023-05-10T05:44:30;9.47;;;5.00;;
77206;SDS011;66190;50.708;7.906;2023-05-10T05:46:56;11.40;;;5.30;;
77206;SDS011;66190;50.708;7.906;2023-05-10T05:49:21;38.80;;;6.03;;
77206;SDS011;66190;50.708;7.906;2023-05-10T05:51:46;26.00;;;3.87;;
77206;SDS011;66190;50.708;7.906;2023-05-10T05:54:14;25.58;;;3.88;;
77206;SDS011;66190;50.708;7.906;2023-05-10T05:56:39;12.20;;;3.87;;
77206;SDS011;66190;50.708;7.906;2023-05-10T05:59:05;12.83;;;5.53;;
77206;SDS011;66190;50.708;7.906;2023-05-10T06:01:30;9.67;;;3.90;;
77206;SDS011;66190;50.708;7.906;2023-05-10T06:03:56;10.70;;;6.05;;
77206;SDS011;66190;50.708;7.906;2023-05-10T06:06:21;10.20;;;4.83;;
77206;SDS011;66190;50.708;7.906;2023-05-10T06:08:47;10.90;;;4.83;;
77206;SDS011;66190;50.708;7.906;2023-05-10T06:11:12;9.37;;;4.53;;
77206;SDS011;66190;50.708;7.906;2023-05-10T06:13:37;10.17;;;4.13;;
77206;SDS011;66190;50.708;7.906;2023-05-10T06:16:03;10.13;;;4.32;;
77206;SDS011;66190;50.708;7.906;2023-05-10T06:18:28;8.70;;;3.60;;
77206;SDS011;66190;50.708;7.906;2023-05-10T06:20:54;9.50;;;3.50;;
77206;SDS011;66190;50.708;7.906;2023-05-10T06:23:19;9.20;;;3.57;;
77206;SDS011;66190;50.708;7.906;2023-05-10T06:25:44;11.00;;;4.30;;
77206;SDS011;66190;50.708;7.906;2023-05-10T06:28:10;11.35;;;4.72;;
77206;SDS011;66190;50.708;7.906;2023-05-10T06:30:35;11.53;;;4.57;;
77206;SDS011;66190;50.708;7.906;2023-05-10T06:33:01;10.25;;;4.13;;
77206;SDS011;66190;50.708;7.906;2023-05-10T06:35:27;11.47;;;4.87;;
77206;SDS011;66190;50.708;7.906;2023-05-10T06:37:53;15.38;;;7.75;;
77206;SDS011;66190;50.708;7.906;2023-05-10T06:40:18;12.53;;;6.17;;
77206;SDS011;66190;50.708;7.906;2023-05-10T06:42:44;14.10;;;6.40;;
77206;SDS011;66190;50.708;7.906;2023-05-10T06:45:10;10.63;;;5.35;;
77206;SDS011;66190;50.708;7.906;2023-05-10T06:47:36;12.57;;;6.45;;
77206;SDS011;66190;50.708;7.906;2023-05-10T06:50:01;10.88;;;4.93;;
77206;SDS011;66190;50.708;7.906;2023-05-10T06:52:26;10.20;;;4.80;;
77206;SDS011;66190;50.708;7.906;2023-05-10T06:54:52;11.70;;;5.30;;
77206;SDS011;66190;50.708;7.906;2023-05-10T06:57:17;10.73;;;5.00;;
77206;SDS011;66190;50.708;7.906;2023-05-10T06:59:43;8.33;;;2.97;;
77206;SDS011;66190;50.708;7.906;2023-05-10T07:02:09;7.30;;;2.00;;
77206;SDS011;66190;50.708;7.906;2023-05-10T07:04:34;6.70;;;2.00;;
77206;SDS011;66190;50.708;7.906;2023-05-10T07:07:00;6.90;;;2.05;;
77206;SDS011;66190;50.708;7.906;2023-05-10T07:09:25;6.67;;;2.53;;
77206;SDS011;66190;50.708;7.906;2023-05-10T07:11:50;7.57;;;2.80;;
77206;SDS011;66190;50.708;7.906;2023-05-10T07:14:16;9.93;;;3.10;;
77206;SDS011;66190;50.708;7.906;2023-05-10T07:16:41;10.33;;;3.43;;
77206;SDS011;66190;50.708;7.906;2023-05-10T07:19:07;13.48;;;4.90;;
77206;SDS011;66190;50.708;7.906;2023-05-10T07:21:32;11.52;;;4.65;;
77206;SDS011;66190;50.708;7.906;2023-05-10T07:23:57;12.23;;;4.93;;
77206;SDS011;66190;50.708;7.906;2023-05-10T07:26:23;13.57;;;6.07;;
77206;SDS011;66190;50.708;7.906;2023-05-10T07:28:49;13.38;;;5.65;;
77206;SDS011;66190;50.708;7.906;2023-05-10T07:31:14;14.53;;;6.10;;
77206;SDS011;66190;50.708;7.906;2023-05-10T07:33:40;17.53;;;7.97;;
77206;SDS011;66190;50.708;7.906;2023-05-10T07:36:05;18.52;;;7.32;;
77206;SDS011;66190;50.708;7.906;2023-05-10T07:38:31;17.50;;;7.23;;
77206;SDS011;66190;50.708;7.906;2023-05-10T07:40:56;16.90;;;7.13;;
77206;SDS011;66190;50.708;7.906;2023-05-10T07:43:22;13.60;;;6.07;;
77206;SDS011;66190;50.708;7.906;2023-05-10T07:45:47;13.68;;;5.57;;
77206;SDS011;66190;50.708;7.906;2023-05-10T07:48:13;16.33;;;6.33;;
77206;SDS011;66190;50.708;7.906;2023-05-10T07:50:38;14.73;;;5.73;;
77206;SDS011;66190;50.708;7.906;2023-05-10T07:53:03;17.37;;;7.53;;
77206;SDS011;66190;50.708;7.906;2023-05-10T07:55:29;15.68;;;6.43;;
77206;SDS011;66190;50.708;7.906;2023-05-10T07:57:54;15.73;;;7.10;;
77206;SDS011;66190;50.708;7.906;2023-05-10T08:00:20;15.30;;;6.10;;
77206;SDS011;66190;50.708;7.906;2023-05-10T08:02:46;13.90;;;5.53;;
77206;SDS011;66190;50.708;7.906;2023-05-10T08:05:12;12.82;;;5.75;;
77206;SDS011;66190;50.708;7.906;2023-05-10T08:07:38;12.35;;;5.05;;
77206;SDS011;66190;50.708;7.906;2023-05-10T08:10:04;12.18;;;5.78;;
77206;SDS011;66190;50.708;7.906;2023-05-10T08:12:30;14.43;;;6.30;;
77206;SDS011;66190;50.708;7.906;2023-05-10T08:14:56;13.83;;;7.03;;
77206;SDS011;66190;50.708;7.906;2023-05-10T08:17:22;16.60;;;6.63;;
77206;SDS011;66190;50.708;7.906;2023-05-10T08:19:47;12.48;;;6.00;;
77206;SDS011;66190;50.708;7.906;2023-05-10T08:22:12;11.87;;;5.30;;
77206;SDS011;66190;50.708;7.906;2023-05-10T08:24:38;12.07;;;5.10;;
77206;SDS011;66190;50.708;7.906;2023-05-10T08:27:07;12.57;;;5.93;;
77206;SDS011;66190;50.708;7.906;2023-05-10T08:29:33;12.55;;;5.20;;
77206;SDS011;66190;50.708;7.906;2023-05-10T08:31:59;13.93;;;6.40;;
77206;SDS011;66190;50.708;7.906;2023-05-10T08:34:25;12.18;;;5.55;;
77206;SDS011;66190;50.708;7.906;2023-05-10T08:36:51;10.45;;;4.50;;
77206;SDS011;66190;50.708;7.906;2023-05-10T08:39:16;13.60;;;5.90;;
77206;SDS011;66190;50.708;7.906;2023-05-10T08:41:42;13.63;;;6.40;;
77206;SDS011;66190;50.708;7.906;2023-05-10T08:44:09;11.35;;;5.07;;
77206;SDS011;66190;50.708;7.906;2023-05-10T08:46:35;10.35;;;5.13;;
77206;SDS011;66190;50.708;7.906;2023-05-10T08:49:04;15.18;;;6.78;;
77206;SDS011;66190;50.708;7.906;2023-05-10T08:51:34;11.07;;;5.00;;
77206;SDS011;66190;50.708;7.906;2023-05-10T08:54:02;11.73;;;3.80;;
77206;SDS011;66190;50.708;7.906;2023-05-10T08:56:29;10.05;;;3.95;;
77206;SDS011;66190;50.708;7.906;2023-05-10T08:58:55;10.07;;;4.40;;
77206;SDS011;66190;50.708;7.906;2023-05-10T09:01:21;10.90;;;5.07;;
77206;SDS011;66190;50.708;7.906;2023-05-10T09:03:48;9.27;;;3.67;;
77206;SDS011;66190;50.708;7.906;2023-05-10T09:06:15;8.00;;;3.92;;
77206;SDS011;66190;50.708;7.906;2023-05-10T09:08:44;8.55;;;3.53;;
77206;SDS011;66190;50.708;7.906;2023-05-10T09:11:11;9.68;;;4.00;;
77206;SDS011;66190;50.708;7.906;2023-05-10T09:13:37;8.85;;;4.13;;
77206;SDS011;66190;50.708;7.906;2023-05-10T09:16:03;8.35;;;3.65;;
77206;SDS011;66190;50.708;7.906;2023-05-10T09:18:29;8.02;;;2.88;;
77206;SDS011;66190;50.708;7.906;2023-05-10T09:20:54;8.77;;;3.07;;
77206;SDS011;66190;50.708;7.906;2023-05-10T09:23:20;6.63;;;2.30;;
77206;SDS011;66190;50.708;7.906;2023-05-10T09:25:45;8.80;;;3.13;;
77206;SDS011;66190;50.708;7.906;2023-05-10T09:28:11;7.30;;;2.83;;
77206;SDS011;66190;50.708;7.906;2023-05-10T09:30:36;6.80;;;2.53;;
77206;SDS011;66190;50.708;7.906;2023-05-10T09:33:02;7.45;;;2.88;;
77206;SDS011;66190;50.708;7.906;2023-05-10T09:35:29;5.50;;;2.17;;
77206;SDS011;66190;50.708;7.906;2023-05-10T09:37:57;7.78;;;2.60;;
77206;SDS011;66190;50.708;7.906;2023-05-10T09:40:25;6.70;;;2.40;;
77206;SDS011;66190;50.708;7.906;2023-05-10T09:43:02;5.70;;;1.90;;
77206;SDS011;66190;50.708;7.906;2023-05-10T09:45:32;5.38;;;1.90;;
77206;SDS011;66190;50.708;7.906;2023-05-10T09:47:59;5.20;;;1.60;;
77206;SDS011;66190;50.708;7.906;2023-05-10T09:50:27;6.45;;;2.22;;
77206;SDS011;66190;50.708;7.906;2023-05-10T09:53:00;4.70;;;1.45;;
77206;SDS011;66190;50.708;7.906;2023-05-10T09:58:10;5.85;;;2.08;;
77206;SDS011;66190;50.708;7.906;2023-05-10T10:00:39;6.25;;;1.70;;
77206;SDS011;66190;50.708;7.906;2023-05-10T10:03:05;5.53;;;1.83;;
77206;SDS011;66190;50.708;7.906;2023-05-10T10:05:35;8.23;;;2.28;;
77206;SDS011;66190;50.708;7.906;2023-05-10T10:08:01;5.75;;;1.60;;
77206;SDS011;66190;50.708;7.906;2023-05-10T10:10:29;7.10;;;2.88;;
77206;SDS011;66190;50.708;7.906;2023-05-10T10:12:56;5.85;;;2.30;;
77206;SDS011;66190;50.708;7.906;2023-05-10T10:15:21;5.60;;;1.87;;
77206;SDS011;66190;50.708;7.906;2023-05-10T10:17:48;6.55;;;3.00;;
77206;SDS011;66190;50.708;7.906;2023-05-10T10:20:15;8.65;;;2.90;;
77206;SDS011;66190;50.708;7.906;2023-05-10T10:22:41;6.90;;;2.35;;
77206;SDS011;66190;50.708;7.906;2023-05-10T10:25:07;5.77;;;1.60;;
77206;SDS011;66190;50.708;7.906;2023-05-10T10:30:27;6.87;;;2.43;;
77206;SDS011;66190;50.708;7.906;2023-05-10T10:35:31;7.53;;;2.35;;
77206;SDS011;66190;50.708;7.906;2023-05-10T10:37:57;6.85;;;2.08;;
77206;SDS011;66190;50.708;7.906;2023-05-10T10:40:24;6.23;;;2.53;;
77206;SDS011;66190;50.708;7.906;2023-05-10T10:42:50;6.43;;;2.45;;
77206;SDS011;66190;50.708;7.906;2023-05-10T10:45:16;6.40;;;2.20;;
77206;SDS011;66190;50.708;7.906;2023-05-10T10:47:41;6.47;;;2.03;;
77206;SDS011;66190;50.708;7.906;2023-05-10T10:50:08;6.18;;;1.95;;
77206;SDS011;66190;50.708;7.906;2023-05-10T10:52:38;5.65;;;1.40;;
77206;SDS011;66190;50.708;7.906;2023-05-10T10:55:15;2.75;;;0.60;;
77206;SDS011;66190;50.708;7.906;2023-05-10T11:02:47;3.38;;;0.75;;
77206;SDS011;66190;50.708;7.906;2023-05-10T11:07:58;3.85;;;0.57;;
77206;SDS011;66190;50.708;7.906;2023-05-10T11:10:25;2.33;;;0.60;;
77206;SDS011;66190;50.708;7.906;2023-05-10T11:13:12;2.15;;;0.60;;
77206;SDS011;66190;50.708;7.906;2023-05-10T11:15:38;4.57;;;0.70;;
77206;SDS011;66190;50.708;7.906;2023-05-10T11:18:18;3.45;;;0.80;;
77206;SDS011;66190;50.708;7.906;2023-05-10T11:26:08;3.67;;;0.80;;
77206;SDS011;66190;50.708;7.906;2023-05-10T11:28:40;3.78;;;1.02;;
77206;SDS011;66190;50.708;7.906;2023-05-10T11:31:06;3.45;;;0.90;;
77206;SDS011;66190;50.708;7.906;2023-05-10T11:33:41;5.35;;;1.08;;
77206;SDS011;66190;50.708;7.906;2023-05-10T11:36:18;4.43;;;1.23;;
77206;SDS011;66190;50.708;7.906;2023-05-10T11:38:45;6.13;;;1.40;;
77206;SDS011;66190;50.708;7.906;2023-05-10T11:41:11;4.30;;;1.20;;
77206;SDS011;66190;50.708;7.906;2023-05-10T11:43:40;5.97;;;1.23;;
77206;SDS011;66190;50.708;7.906;2023-05-10T11:46:10;10.75;;;4.75;;
77206;SDS011;66190;50.708;7.906;2023-05-10T11:48:38;7.57;;;3.17;;
77206;SDS011;66190;50.708;7.906;2023-05-10T11:51:04;5.43;;;1.38;;
77206;SDS011;66190;50.708;7.906;2023-05-10T11:53:31;6.70;;;2.65;;
77206;SDS011;66190;50.708;7.906;2023-05-10T11:56:08;5.32;;;1.60;;
77206;SDS011;66190;50.708;7.906;2023-05-10T11:58:35;5.45;;;1.77;;
77206;SDS011;66190;50.708;7.906;2023-05-10T12:01:02;8.43;;;3.73;;
77206;SDS011;66190;50.708;7.906;2023-05-10T12:03:29;6.53;;;2.40;;
77206;SDS011;66190;50.708;7.906;2023-05-10T12:05:55;5.53;;;2.08;;
77206;SDS011;66190;50.708;7.906;2023-05-10T12:08:23;12.02;;;5.95;;
77206;SDS011;66190;50.708;7.906;2023-05-10T12:10:50;14.73;;;8.90;;
77206;SDS011;66190;50.708;7.906;2023-05-10T12:13:16;5.67;;;2.33;;
77206;SDS011;66190;50.708;7.906;2023-05-10T12:15:42;5.78;;;2.17;;
77206;SDS011;66190;50.708;7.906;2023-05-10T12:18:11;5.03;;;1.90;;
77206;SDS011;66190;50.708;7.906;2023-05-10T12:20:38;5.10;;;1.90;;
77206;SDS011;66190;50.708;7.906;2023-05-10T12:23:04;5.60;;;2.10;;
77206;SDS011;66190;50.708;7.906;2023-05-10T12:25:33;4.83;;;1.87;;
77206;SDS011;66190;50.708;7.906;2023-05-10T12:28:03;4.30;;;1.00;;
77206;SDS011;66190;50.708;7.906;2023-05-10T12:30:31;4.15;;;1.50;;
77206;SDS011;66190;50.708;7.906;2023-05-10T12:33:01;5.28;;;1.40;;
77206;SDS011;66190;50.708;7.906;2023-05-10T12:35:32;4.73;;;1.70;;
77206;SDS011;66190;50.708;7.906;2023-05-10T12:37:58;4.75;;;1.75;;
77206;SDS011;66190;50.708;7.906;2023-05-10T12:40:24;5.43;;;1.63;;
77206;SDS011;66190;50.708;7.906;2023-05-10T12:42:49;5.70;;;1.83;;
77206;SDS011;66190;50.708;7.906;2023-05-10T12:45:16;5.63;;;2.38;;
77206;SDS011;66190;50.708;7.906;2023-05-10T12:47:42;5.20;;;1.75;;
77206;SDS011;66190;50.708;7.906;2023-05-10T12:50:08;6.83;;;2.73;;
77206;SDS011;66190;50.708;7.906;2023-05-10T12:52:34;6.65;;;2.80;;
77206;SDS011;66190;50.708;7.906;2023-05-10T12:54:59;7.28;;;3.45;;
77206;SDS011;66190;50.708;7.906;2023-05-10T12:57:25;8.30;;;3.30;;
77206;SDS011;66190;50.708;7.906;2023-05-10T12:59:52;7.78;;;3.80;;
77206;SDS011;66190;50.708;7.906;2023-05-10T13:02:17;7.33;;;3.13;;
77206;SDS011;66190;50.708;7.906;2023-05-10T13:04:43;8.33;;;3.77;;
77206;SDS011;66190;50.708;7.906;2023-05-10T13:07:09;10.85;;;4.22;;
77206;SDS011;66190;50.708;7.906;2023-05-10T13:09:35;11.80;;;4.50;;
77206;SDS011;66190;50.708;7.906;2023-05-10T13:12:00;11.57;;;4.68;;
77206;SDS011;66190;50.708;7.906;2023-05-10T13:14:27;10.80;;;5.05;;
77206;SDS011;66190;50.708;7.906;2023-05-10T13:16:52;11.90;;;4.75;;
77206;SDS011;66190;50.708;7.906;2023-05-10T13:19:18;11.20;;;5.07;;
77206;SDS011;66190;50.708;7.906;2023-05-10T13:21:44;10.88;;;5.63;;
77206;SDS011;66190;50.708;7.906;2023-05-10T13:24:18;16.73;;;6.97;;
77206;SDS011;66190;50.708;7.906;2023-05-10T13:26:43;29.30;;;11.82;;
77206;SDS011;66190;50.708;7.906;2023-05-10T13:29:09;11.43;;;4.97;;
77206;SDS011;66190;50.708;7.906;2023-05-10T13:31:34;11.00;;;4.93;;
77206;SDS011;66190;50.708;7.906;2023-05-10T13:34:00;11.65;;;6.03;;
77206;SDS011;66190;50.708;7.906;2023-05-10T13:36:26;12.90;;;5.07;;
77206;SDS011;66190;50.708;7.906;2023-05-10T13:38:51;10.37;;;3.93;;
77206;SDS011;66190;50.708;7.906;2023-05-10T13:41:17;11.00;;;4.03;;
77206;SDS011;66190;50.708;7.906;2023-05-10T13:43:43;11.77;;;4.43;;
77206;SDS011;66190;50.708;7.906;2023-05-10T13:46:08;9.00;;;3.50;;
77206;SDS011;66190;50.708;7.906;2023-05-10T13:48:34;8.30;;;3.08;;
77206;SDS011;66190;50.708;7.906;2023-05-10T13:50:59;7.87;;;3.43;;
77206;SDS011;66190;50.708;7.906;2023-05-10T13:53:24;8.07;;;3.23;;
77206;SDS011;66190;50.708;7.906;2023-05-10T13:55:50;8.07;;;2.90;;
77206;SDS011;66190;50.708;7.906;2023-05-10T13:58:15;8.03;;;3.20;;
77206;SDS011;66190;50.708;7.906;2023-05-10T14:00:41;8.93;;;3.70;;
77206;SDS011;66190;50.708;7.906;2023-05-10T14:03:06;7.68;;;3.20;;
77206;SDS011;66190;50.708;7.906;2023-05-10T14:05:34;8.48;;;3.28;;
77206;SDS011;66190;50.708;7.906;2023-05-10T14:07:59;8.20;;;3.50;;
77206;SDS011;66190;50.708;7.906;2023-05-10T14:10:25;8.70;;;3.67;;
77206;SDS011;66190;50.708;7.906;2023-05-10T14:12:50;8.50;;;3.73;;
77206;SDS011;66190;50.708;7.906;2023-05-10T14:15:15;10.13;;;4.05;;
77206;SDS011;66190;50.708;7.906;2023-05-10T14:17:41;9.10;;;3.93;;
77206;SDS011;66190;50.708;7.906;2023-05-10T14:20:07;8.37;;;3.70;;
77206;SDS011;66190;50.708;7.906;2023-05-10T14:22:33;9.63;;;4.30;;
77206;SDS011;66190;50.708;7.906;2023-05-10T14:24:59;10.40;;;4.40;;
77206;SDS011;66190;50.708;7.906;2023-05-10T14:27:25;9.82;;;4.07;;
77206;SDS011;66190;50.708;7.906;2023-05-10T14:29:51;7.07;;;3.10;;
77206;SDS011;66190;50.708;7.906;2023-05-10T14:32:18;9.70;;;4.47;;
77206;SDS011;66190;50.708;7.906;2023-05-10T14:34:43;8.90;;;4.28;;
77206;SDS011;66190;50.708;7.906;2023-05-10T14:37:10;10.07;;;4.20;;
77206;SDS011;66190;50.708;7.906;2023-05-10T14:39:36;8.75;;;3.88;;
77206;SDS011;66190;50.708;7.906;2023-05-10T14:42:01;8.07;;;3.83;;
77206;SDS011;66190;50.708;7.906;2023-05-10T14:44:27;8.53;;;3.90;;
77206;SDS011;66190;50.708;7.906;2023-05-10T14:46:53;9.27;;;4.40;;
77206;SDS011;66190;50.708;7.906;2023-05-10T14:49:18;8.27;;;3.73;;
77206;SDS011;66190;50.708;7.906;2023-05-10T14:51:44;8.80;;;3.63;;
77206;SDS011;66190;50.708;7.906;2023-05-10T14:54:10;8.68;;;3.65;;
77206;SDS011;66190;50.708;7.906;2023-05-10T14:56:36;8.50;;;3.80;;
77206;SDS011;66190;50.708;7.906;2023-05-10T14:59:02;8.10;;;3.38;;
77206;SDS011;66190;50.708;7.906;2023-05-10T15:01:28;7.53;;;3.30;;
77206;SDS011;66190;50.708;7.906;2023-05-10T15:03:54;7.93;;;3.03;;
77206;SDS011;66190;50.708;7.906;2023-05-10T15:06:22;7.07;;;2.60;;
77206;SDS011;66190;50.708;7.906;2023-05-10T15:08:49;6.65;;;1.80;;
77206;SDS011;66190;50.708;7.906;2023-05-10T15:11:14;6.07;;;2.00;;
77206;SDS011;66190;50.708;7.906;2023-05-10T15:13:39;5.20;;;1.77;;
77206;SDS011;66190;50.708;7.906;2023-05-10T15:16:05;5.68;;;2.17;;